createdAt,value
2023-01-08T04:20:15.437Z,100718.98
2023-01-08T04:22:42.143Z,100722.07
2023-01-08T04:25:09.416Z,100720.34
2023-01-08T04:27:36.150Z,100718.61
2023-01-08T04:30:02.976Z,100712.11
2023-01-08T04:32:29.698Z,100721.38
2023-01-08T04:34:56.428Z,100718.83
2023-01-08T04:37:23.131Z,100717.12
2023-01-08T04:39:50.899Z,100724.30
2023-01-08T04:42:17.675Z,100728.75
2023-01-08T04:44:44.409Z,100736.13
2023-01-08T04:47:11.159Z,100728.39
2023-01-08T04:49:37.882Z,100728.38
2023-01-08T04:52:04.946Z,100727.85
2023-01-08T04:54:31.662Z,100723.09
2023-01-08T04:56:58.364Z,100721.59
2023-01-08T04:59:25.471Z,100721.61
2023-01-08T05:01:52.294Z,100723.16
2023-01-08T05:04:19.163Z,100726.39
2023-01-08T05:06:45.854Z,100732.04
2023-01-08T05:09:12.510Z,100731.02
2023-01-08T05:11:39.599Z,100735.65
2023-01-08T05:14:06.329Z,100740.59
2023-01-08T05:16:33.279Z,100746.20
2023-01-08T05:19:00.132Z,100746.16
2023-01-08T05:21:26.871Z,100743.59
2023-01-08T05:23:53.614Z,100740.70
2023-01-08T05:26:20.464Z,100738.52
2023-01-08T05:28:47.401Z,100746.41
2023-01-08T05:31:14.591Z,100748.30
2023-01-08T05:33:41.433Z,100741.99
2023-01-08T05:36:08.917Z,100743.21
2023-01-08T05:38:35.693Z,100746.97
2023-01-08T05:41:02.387Z,100740.81
2023-01-08T05:43:29.391Z,100738.27
2023-01-08T05:46:01.002Z,100740.53
2023-01-08T05:48:28.577Z,100741.57
2023-01-08T05:50:55.354Z,100747.41
2023-01-08T05:53:22.202Z,100750.70
2023-01-08T05:55:49.024Z,100747.13
2023-01-08T05:58:19.082Z,100755.36
2023-01-08T06:00:45.995Z,100759.83
2023-01-08T06:03:12.855Z,100762.39
2023-01-08T06:05:39.708Z,100762.52
2023-01-08T06:08:08.516Z,100759.98
2023-01-08T06:10:38.067Z,100763.08
2023-01-08T06:13:09.108Z,100759.46
2023-01-08T06:15:37.896Z,100761.01
2023-01-08T06:18:04.925Z,100762.71
2023-01-08T06:20:31.616Z,100762.73
2023-01-08T06:22:58.421Z,100762.19
2023-01-08T06:25:25.216Z,100763.18
2023-01-08T06:27:52.575Z,100766.05
2023-01-08T06:30:19.504Z,100762.08
2023-01-08T06:32:46.354Z,100761.55
2023-01-08T06:35:13.057Z,100760.19
2023-01-08T06:37:39.722Z,100754.55
2023-01-08T06:40:07.144Z,100754.55
2023-01-08T06:42:33.812Z,100751.63
2023-01-08T06:45:00.582Z,100754.76
2023-01-08T06:47:27.302Z,100764.59
2023-01-08T06:49:53.988Z,100760.34
2023-01-08T06:52:20.669Z,100757.96
2023-01-08T06:54:47.392Z,100759.53
2023-01-08T06:57:14.260Z,100756.98
2023-01-08T06:59:41.027Z,100757.32
2023-01-08T07:02:13.520Z,100760.94
2023-01-08T07:04:40.390Z,100755.65
2023-01-08T07:07:07.143Z,100756.52
2023-01-08T07:09:34.914Z,100756.86
2023-01-08T07:12:01.705Z,100753.09
2023-01-08T07:14:28.385Z,100752.41
2023-01-08T07:16:55.057Z,100755.13
2023-01-08T07:19:21.742Z,100755.98
2023-01-08T07:21:48.475Z,100755.80
2023-01-08T07:24:15.222Z,100750.84
2023-01-08T07:26:41.933Z,100753.41
2023-01-08T07:29:08.803Z,100749.13
2023-01-08T07:31:35.547Z,100747.23
2023-01-08T07:34:02.263Z,100754.09
2023-01-08T07:36:29.032Z,100756.51
2023-01-08T07:38:55.752Z,100756.67
2023-01-08T07:41:22.492Z,100760.30
2023-01-08T07:43:50.318Z,100759.94
2023-01-08T07:46:17.052Z,100765.79
2023-01-08T07:48:43.980Z,100757.71
2023-01-08T07:51:10.731Z,100762.35
2023-01-08T07:53:37.632Z,100762.00
2023-01-08T07:56:06.479Z,100760.81
2023-01-08T07:58:33.620Z,100757.38
2023-01-08T08:01:00.531Z,100759.12
2023-01-08T08:03:27.400Z,100759.64
2023-01-08T08:05:54.268Z,100764.64
2023-01-08T08:08:21.201Z,100762.92
2023-01-08T08:10:48.027Z,100765.48
2023-01-08T08:13:15.059Z,100766.70
2023-01-08T08:15:41.834Z,100771.02
2023-01-08T08:18:08.736Z,100776.34
2023-01-08T08:20:35.485Z,100779.77
2023-01-08T08:23:09.687Z,100776.86
2023-01-08T08:25:36.865Z,100778.40
2023-01-08T08:28:03.972Z,100777.38
2023-01-08T08:30:31.678Z,100778.25
2023-01-08T08:33:00.571Z,100774.65
2023-01-08T08:35:27.618Z,100778.59
2023-01-08T08:37:55.192Z,100772.23
2023-01-08T08:40:22.033Z,100770.20
2023-01-08T08:42:48.738Z,100771.59
2023-01-08T08:45:15.479Z,100776.23
2023-01-08T08:47:42.168Z,100766.79
2023-01-08T08:50:09.627Z,100763.88
2023-01-08T08:52:37.709Z,100761.30
2023-01-08T08:55:05.090Z,100759.24
2023-01-08T08:57:31.926Z,100751.64
2023-01-08T09:00:00.968Z,100749.22
2023-01-08T09:02:28.167Z,100757.62
2023-01-08T09:04:55.068Z,100750.23
2023-01-08T09:07:21.778Z,100747.29
2023-01-08T09:09:48.480Z,100752.60
2023-01-08T09:12:15.185Z,100748.15
2023-01-08T09:14:41.892Z,100743.16
2023-01-08T09:17:08.572Z,100746.96
2023-01-08T09:19:35.429Z,100743.17
2023-01-08T09:22:03.119Z,100742.16
2023-01-08T09:24:32.362Z,100743.71
2023-01-08T09:26:59.576Z,100743.36
2023-01-08T09:29:26.290Z,100738.38
2023-01-08T09:31:53.118Z,100738.03
2023-01-08T09:34:19.864Z,100730.97
2023-01-08T09:36:46.630Z,100730.41
2023-01-08T09:39:13.396Z,100728.52
2023-01-08T09:41:42.771Z,100726.57
2023-01-08T09:44:12.028Z,100725.69
2023-01-08T09:46:38.879Z,100729.30
2023-01-08T09:49:07.958Z,100721.70
2023-01-08T09:51:35.914Z,100721.19
2023-01-08T09:54:05.328Z,100718.61
2023-01-08T09:56:32.095Z,100714.27
2023-01-08T09:59:04.307Z,100713.91
2023-01-08T10:01:36.677Z,100714.39
2023-01-08T10:04:18.486Z,100716.93
2023-01-08T10:06:56.418Z,100710.05
2023-01-08T10:09:31.480Z,100712.42
2023-01-08T10:12:00.331Z,100712.44
2023-01-08T10:14:29.741Z,100706.27
2023-01-08T10:17:02.545Z,100705.76
2023-01-08T10:19:31.594Z,100704.67
2023-01-08T10:21:58.499Z,100711.17
2023-01-08T10:24:36.916Z,100709.95
2023-01-08T10:27:08.516Z,100704.39
2023-01-08T10:29:35.520Z,100709.56
2023-01-08T10:32:08.811Z,100710.07
2023-01-08T10:34:51.635Z,100704.20
2023-01-08T10:37:39.346Z,100701.15
2023-01-08T10:40:31.174Z,100694.96
2023-01-08T10:43:06.724Z,100696.18
2023-01-08T10:45:35.821Z,100692.54
2023-01-08T10:48:05.935Z,100694.89
2023-01-08T10:50:33.994Z,100691.90
2023-01-08T10:53:02.895Z,100684.73
2023-01-08T10:55:32.098Z,100686.44
2023-01-08T10:57:59.859Z,100692.63
2023-01-08T11:00:31.742Z,100690.77
2023-01-08T11:03:00.419Z,100692.83
2023-01-08T11:05:38.517Z,100693.90
2023-01-08T11:08:21.859Z,100689.27
2023-01-08T11:10:54.539Z,100690.19
2023-01-08T11:13:21.911Z,100681.77
2023-01-08T11:16:05.340Z,100680.53
2023-01-08T11:18:32.366Z,100672.27
2023-01-08T11:21:11.012Z,100675.88
2023-01-08T11:23:40.563Z,100680.00
2023-01-08T11:26:18.495Z,100675.55
2023-01-08T11:28:54.918Z,100677.21
2023-01-08T11:31:26.669Z,100676.40
2023-01-08T11:33:57.075Z,100678.69
2023-01-08T11:36:34.854Z,100674.92
2023-01-08T11:39:02.641Z,100679.73
2023-01-08T11:41:59.384Z,100681.96
2023-01-08T11:44:53.956Z,100678.88
2023-01-08T11:47:42.426Z,100672.38
2023-01-08T11:50:15.163Z,100674.80
2023-01-08T11:52:45.984Z,100673.59
2023-01-08T11:55:58.332Z,100670.64
2023-01-08T11:58:31.128Z,100669.87
2023-01-08T12:01:08.501Z,100667.81
2023-01-08T12:03:38.648Z,100675.94
2023-01-08T12:06:25.197Z,100675.27
2023-01-08T12:09:21.923Z,100672.86
2023-01-08T12:12:07.916Z,100665.98
2023-01-08T12:14:41.045Z,100666.50
2023-01-08T12:17:13.486Z,100663.91
2023-01-08T12:20:20.179Z,100655.98
2023-01-08T12:23:03.165Z,100654.20
2023-01-08T12:25:49.172Z,100650.02
2023-01-08T12:28:18.504Z,100648.11
2023-01-08T12:31:21.408Z,100647.64
2023-01-08T12:33:57.234Z,100652.02
2023-01-08T12:36:43.414Z,100646.23
2023-01-08T12:39:21.938Z,100642.98
2023-01-08T12:41:48.856Z,100638.14
2023-01-08T12:44:20.537Z,100640.73
2023-01-08T12:46:47.538Z,100638.36
2023-01-08T12:49:18.520Z,100635.44
2023-01-08T12:51:57.724Z,100628.40
2023-01-08T12:54:33.187Z,100629.79
2023-01-08T12:57:26.699Z,100633.23
2023-01-08T13:00:02.588Z,100634.55
2023-01-08T13:02:45.061Z,100631.27
2023-01-08T13:05:14.145Z,100627.30
2023-01-08T13:07:56.880Z,100625.26
2023-01-08T13:10:28.673Z,100627.67
2023-01-08T13:12:55.770Z,100627.48
2023-01-08T13:15:25.321Z,100627.64
2023-01-08T13:18:00.831Z,100624.02
2023-01-08T13:20:29.088Z,100632.27
2023-01-08T13:22:57.342Z,100630.01
2023-01-08T13:25:37.662Z,100631.04
2023-01-08T13:28:38.800Z,100636.20
2023-01-08T13:31:20.984Z,100636.22
2023-01-08T13:33:52.638Z,100636.77
2023-01-08T13:36:29.084Z,100634.04
2023-01-08T13:39:20.298Z,100634.75
2023-01-08T13:42:04.797Z,100628.74
2023-01-08T13:44:34.580Z,100628.58
2023-01-08T13:47:02.599Z,100624.64
2023-01-08T13:49:36.253Z,100621.55
2023-01-08T13:52:03.027Z,100623.09
2023-01-08T13:54:39.653Z,100623.77
2023-01-08T13:57:12.701Z,100615.66
2023-01-08T13:59:40.589Z,100609.29
2023-01-08T14:02:31.847Z,100609.63
2023-01-08T14:05:02.932Z,100606.92
2023-01-08T14:07:30.801Z,100596.13
2023-01-08T14:10:11.781Z,100598.90
2023-01-08T14:12:38.521Z,100599.27
2023-01-08T14:15:09.897Z,100594.50
2023-01-08T14:17:36.658Z,100594.02
2023-01-08T14:20:05.093Z,100588.55
2023-01-08T14:22:33.695Z,100589.98
2023-01-08T14:25:02.583Z,100589.32
2023-01-08T14:27:30.264Z,100587.28
2023-01-08T14:29:58.461Z,100582.33
2023-01-08T14:32:27.898Z,100583.88
2023-01-08T14:34:55.389Z,100588.70
2023-01-08T14:37:23.068Z,100586.13
2023-01-08T14:39:54.681Z,100585.11
2023-01-08T14:42:43.084Z,100589.61
2023-01-08T14:45:21.992Z,100585.14
2023-01-08T14:47:51.084Z,100587.39
2023-01-08T14:50:28.778Z,100582.75
2023-01-08T14:52:58.588Z,100576.41
2023-01-08T14:55:25.312Z,100581.41
2023-01-08T14:57:53.338Z,100578.85
2023-01-08T15:00:26.553Z,100583.50
2023-01-08T15:02:53.388Z,100580.59
2023-01-08T15:05:24.241Z,100571.83
2023-01-08T15:07:55.221Z,100577.52
2023-01-08T15:10:31.573Z,100584.73
2023-01-08T15:13:00.869Z,100576.66
2023-01-08T15:15:27.691Z,100578.73
2023-01-08T15:17:54.474Z,100579.42
2023-01-08T15:20:30.124Z,100583.55
2023-01-08T15:22:56.839Z,100580.45
2023-01-08T15:25:28.708Z,100579.27
2023-01-08T15:27:57.538Z,100582.02
2023-01-08T15:30:36.242Z,100574.13
2023-01-08T15:33:16.827Z,100581.16
2023-01-08T15:35:43.660Z,100577.57
2023-01-08T15:38:10.512Z,100574.48
2023-01-08T15:40:37.344Z,100579.13
2023-01-08T15:43:10.159Z,100575.17
2023-01-08T15:45:40.970Z,100577.23
2023-01-08T15:48:08.432Z,100584.45
2023-01-08T15:50:39.974Z,100589.42
2023-01-08T15:53:10.666Z,100581.18
2023-01-08T15:55:37.711Z,100576.21
2023-01-08T15:58:04.559Z,100577.42
2023-01-08T16:00:31.268Z,100578.62
2023-01-08T16:03:00.149Z,100573.81
2023-01-08T16:05:28.394Z,100569.68
2023-01-08T16:07:55.089Z,100565.74
2023-01-08T16:10:24.036Z,100572.95
2023-01-08T16:12:51.225Z,100567.30
2023-01-08T16:15:18.406Z,100566.09
2023-01-08T16:17:45.425Z,100562.48
2023-01-08T16:20:12.886Z,100563.52
2023-01-08T16:22:39.767Z,100567.12
2023-01-08T16:25:07.331Z,100575.70
2023-01-08T16:27:34.165Z,100568.84
2023-01-08T16:48:06.063Z,100579.89
2023-01-08T16:50:32.828Z,100576.96
2023-01-08T16:53:00.215Z,100574.73
2023-01-08T16:55:27.086Z,100575.08
2023-01-08T16:57:55.548Z,100584.00
2023-01-08T17:00:24.042Z,100578.52
2023-01-08T17:02:50.870Z,100581.61
2023-01-08T17:05:18.393Z,100578.88
2023-01-08T17:07:45.337Z,100579.04
2023-01-08T17:13:01.003Z,100580.59
2023-01-08T17:15:27.772Z,100582.48
2023-01-08T17:17:54.455Z,100586.43
2023-01-08T17:20:21.190Z,100583.17
2023-01-08T17:22:47.891Z,100581.79
2023-01-08T17:25:14.797Z,100579.55
2023-01-08T17:27:42.201Z,100577.65
2023-01-08T17:30:11.112Z,100579.18
2023-01-08T17:32:38.907Z,100582.27
2023-01-08T17:35:06.481Z,100578.67
2023-01-08T17:37:33.489Z,100578.02
2023-01-08T17:40:01.537Z,100587.27
2023-01-08T17:42:29.348Z,100584.19
2023-01-08T17:44:57.992Z,100586.92
2023-01-08T17:47:25.396Z,100583.48
2023-01-08T17:49:53.051Z,100584.70
2023-01-08T17:52:20.332Z,100584.35
2023-01-08T17:54:48.856Z,100585.71
2023-01-08T17:57:16.956Z,100582.80
2023-01-08T17:59:44.547Z,100586.91
2023-01-08T18:02:15.613Z,100585.70
2023-01-08T18:04:42.854Z,100583.64
2023-01-08T18:07:10.176Z,100585.19
2023-01-08T18:09:36.992Z,100582.11
2023-01-08T18:12:03.904Z,100582.09
2023-01-08T18:14:30.687Z,100583.81
2023-01-08T18:16:57.381Z,100578.84
2023-01-08T18:19:26.159Z,100578.33
2023-01-08T18:21:52.910Z,100572.16
2023-01-08T18:24:19.589Z,100569.23
2023-01-08T18:26:46.749Z,100567.34
2023-01-08T18:29:13.508Z,100571.79
2023-01-08T18:31:40.733Z,100563.56
2023-01-08T18:34:08.914Z,100570.05
2023-01-08T18:36:36.801Z,100569.35
2023-01-08T18:39:03.583Z,100571.40
2023-01-08T18:41:49.100Z,100565.90
2023-01-08T18:44:15.869Z,100564.55
2023-01-08T18:46:42.558Z,100566.43
2023-01-08T18:49:09.414Z,100563.02
2023-01-08T18:51:36.180Z,100562.33
2023-01-08T18:54:04.602Z,100556.15
2023-01-08T18:56:33.417Z,100557.17
2023-01-08T18:59:00.489Z,100555.29
2023-01-08T19:01:27.335Z,100560.25
2023-01-08T19:03:55.713Z,100554.94
2023-01-08T19:06:22.801Z,100556.48
2023-01-08T19:08:49.482Z,100553.22
2023-01-08T19:11:16.209Z,100552.87
2023-01-08T19:13:42.911Z,100550.81
2023-01-08T19:16:11.476Z,100557.48
2023-01-08T19:18:38.331Z,100551.14
2023-01-08T19:21:06.293Z,100548.23
2023-01-08T19:23:33.147Z,100541.38
2023-01-08T19:25:59.918Z,100539.84
2023-01-08T19:28:26.599Z,100543.62
2023-01-08T19:30:57.170Z,100540.55
2023-01-08T19:33:24.115Z,100537.13
2023-01-08T19:35:50.991Z,100545.54
2023-01-08T19:38:18.149Z,100539.02
2023-01-08T19:40:44.863Z,100533.20
2023-01-08T19:43:30.897Z,100529.61
2023-01-08T19:46:04.039Z,100529.11
2023-01-08T19:48:30.839Z,100532.71
2023-01-08T19:50:57.507Z,100532.38
2023-01-08T21:38:11.685Z,100492.09
2023-01-08T21:40:38.433Z,100490.20
2023-01-08T21:43:23.935Z,100479.94
2023-01-08T21:45:52.692Z,100481.14
2023-01-08T21:48:23.890Z,100480.29
2023-01-08T21:50:50.570Z,100489.90
2023-01-08T21:53:35.958Z,100483.90
2023-01-08T21:56:03.699Z,100479.45
2023-01-08T21:58:30.562Z,100474.48
2023-01-08T22:00:57.746Z,100468.66
2023-01-08T22:03:24.530Z,100454.78
2023-01-08T22:05:57.185Z,100448.95
2023-01-08T22:08:23.835Z,100442.61
2023-01-08T22:10:50.457Z,100445.02
2023-01-08T22:13:17.773Z,100445.35
2023-01-08T22:15:44.303Z,100439.00
2023-01-08T22:18:27.852Z,100433.85
2023-01-08T22:21:06.387Z,100442.09
2023-01-08T22:23:33.269Z,100434.20
2023-01-08T22:26:09.798Z,100433.17
2023-01-08T22:28:39.693Z,100426.48
2023-01-08T22:31:07.878Z,100431.64
2023-01-08T22:33:34.626Z,100422.89
2023-01-08T22:36:03.400Z,100412.25
2023-01-08T22:41:24.565Z,100421.14
2023-01-08T22:43:57.857Z,100413.93
2023-01-08T22:49:13.483Z,100410.80
2023-01-08T22:51:43.943Z,100415.11
2023-01-08T22:54:13.763Z,100413.05
2023-01-08T22:56:40.599Z,100411.37
2023-01-08T22:59:07.298Z,100410.17
2023-01-08T23:01:34.000Z,100410.52
2023-01-08T23:04:01.191Z,100413.42
2023-01-08T23:06:29.169Z,100408.11
2023-01-08T23:08:56.008Z,100411.88
2023-01-08T23:11:23.019Z,100407.25
2023-01-08T23:13:51.190Z,100411.02
2023-01-08T23:18:35.353Z,100403.45
2023-01-08T23:21:10.593Z,100398.65
2023-01-08T23:23:37.270Z,100393.46
2023-01-08T23:28:25.323Z,100391.23
2023-01-08T23:30:51.988Z,100387.82
2023-01-08T23:33:18.675Z,100383.89
2023-01-08T23:39:32.278Z,100365.55
2023-01-08T23:41:59.004Z,100363.34
2023-01-08T23:44:25.727Z,100360.23
2023-01-08T23:46:52.468Z,100360.41
2023-01-08T23:49:19.141Z,100360.07
2023-01-08T23:51:45.893Z,100359.90
2023-01-08T23:54:12.791Z,100350.14
2023-01-08T23:56:40.443Z,100360.60
2023-01-08T23:59:08.235Z,100360.95
